createdAt,value
2018-09-01T00:00:42.022Z,7.40
2018-09-01T00:03:11.322Z,6.97
2018-09-01T00:05:40.848Z,7.00
2018-09-01T00:08:10.214Z,7.63
2018-09-01T00:10:39.531Z,5.47
2018-09-01T00:13:08.910Z,7.63
2018-09-01T00:15:38.889Z,8.08
2018-09-01T00:18:09.025Z,8.65
2018-09-01T00:20:39.075Z,8.00
2018-09-01T00:23:08.863Z,7.95
2018-09-01T00:25:38.869Z,8.55
2018-09-01T00:28:08.901Z,7.22
2018-09-01T00:30:38.926Z,6.00
2018-09-01T00:33:08.838Z,9.78
2018-09-01T00:35:39.038Z,4.83
2018-09-01T00:38:14.039Z,9.33
2018-09-01T00:40:43.385Z,9.78
2018-09-01T00:43:12.666Z,8.13
2018-09-01T00:45:42.001Z,8.53
2018-09-01T00:48:11.337Z,8.10
2018-09-01T00:50:40.700Z,8.20
2018-09-01T00:53:09.981Z,7.47
2018-09-01T00:55:39.326Z,7.00
2018-09-01T00:58:08.963Z,6.90
2018-09-01T01:00:38.900Z,8.78
2018-09-01T01:03:08.891Z,9.50
2018-09-01T01:05:39.111Z,8.78
2018-09-01T01:08:08.950Z,14.00
2018-09-01T01:10:38.859Z,8.98
2018-09-01T01:13:15.588Z,9.95
2018-09-01T01:15:44.922Z,7.60
2018-09-01T01:18:14.205Z,10.17
2018-09-01T01:20:43.549Z,9.60
2018-09-01T01:23:12.819Z,10.48
2018-09-01T01:25:42.129Z,9.10
2018-09-01T01:28:11.446Z,8.97
2018-09-01T01:30:40.775Z,8.17
2018-09-01T01:33:10.151Z,8.63
2018-09-01T01:35:39.436Z,6.77
2018-09-01T01:38:09.006Z,7.45
2018-09-01T01:40:38.981Z,7.62
2018-09-01T01:43:09.016Z,7.75
2018-09-01T01:45:39.006Z,8.00
2018-09-01T01:48:09.110Z,7.08
2018-09-01T01:51:16.112Z,6.10
2018-09-01T01:53:45.466Z,6.17
2018-09-01T01:56:14.876Z,5.67
2018-09-01T01:58:45.103Z,9.15
2018-09-01T02:01:14.586Z,8.47
2018-09-01T02:03:43.946Z,6.58
2018-09-01T02:06:13.245Z,10.17
2018-09-01T02:08:42.607Z,9.77
2018-09-01T02:11:11.928Z,6.50
2018-09-01T02:13:41.241Z,7.20
2018-09-01T02:16:10.561Z,7.07
2018-09-01T02:18:39.883Z,7.60
2018-09-01T02:21:09.191Z,10.13
2018-09-01T02:23:39.291Z,7.10
2018-09-01T02:26:09.111Z,8.45
2018-09-01T02:28:39.080Z,10.05
2018-09-01T02:31:09.254Z,8.20
2018-09-01T02:33:39.198Z,4.05
2018-09-01T02:36:09.143Z,8.15
2018-09-01T02:38:39.067Z,6.47
2018-09-01T02:41:09.207Z,6.12
2018-09-01T02:43:39.324Z,6.80
2018-09-01T02:46:09.208Z,8.20
2018-09-01T02:48:39.150Z,8.53
2018-09-01T02:51:09.238Z,7.65
2018-09-01T02:53:39.137Z,7.43
2018-09-01T02:56:09.345Z,5.20
2018-09-01T02:58:39.190Z,8.08
2018-09-01T03:01:14.661Z,6.10
2018-09-01T03:03:44.133Z,8.45
2018-09-01T03:06:13.443Z,7.97
2018-09-01T03:08:42.720Z,8.57
2018-09-01T03:11:12.145Z,6.87
2018-09-01T03:13:41.498Z,10.20
2018-09-01T03:16:10.849Z,5.23
2018-09-01T03:18:40.240Z,7.22
2018-09-01T03:21:09.643Z,6.93
2018-09-01T03:23:42.192Z,5.85
2018-09-01T03:26:11.550Z,10.77
2018-09-01T03:28:40.912Z,6.33
2018-09-01T03:31:10.237Z,6.95
2018-09-01T03:33:39.551Z,8.30
2018-09-01T03:36:09.236Z,6.72
2018-09-01T03:38:39.245Z,7.08
2018-09-01T03:41:09.269Z,5.35
2018-09-01T03:43:39.244Z,7.53
2018-09-01T03:46:09.307Z,5.17
2018-09-01T03:48:39.670Z,6.92
2018-09-01T03:51:09.338Z,8.13
2018-09-01T03:53:39.423Z,9.83
2018-09-01T03:56:09.290Z,5.45
2018-09-01T03:58:39.385Z,7.55
2018-09-01T04:01:09.600Z,6.92
2018-09-01T04:03:39.326Z,8.20
2018-09-01T04:06:09.317Z,10.48
2018-09-01T04:08:39.453Z,6.45
2018-09-01T04:11:09.355Z,7.12
2018-09-01T04:13:39.376Z,10.15
2018-09-01T04:16:09.458Z,9.60
2018-09-01T04:18:39.295Z,8.67
2018-09-01T04:21:09.453Z,8.05
2018-09-01T04:23:39.337Z,9.20
2018-09-01T04:26:09.385Z,9.50
2018-09-01T04:28:39.362Z,9.08
2018-09-01T04:31:09.455Z,7.60
2018-09-01T04:33:39.353Z,6.05
2018-09-01T04:36:09.464Z,6.22
2018-09-01T04:38:39.378Z,6.12
2018-09-01T04:41:09.421Z,6.87
2018-09-01T04:43:39.492Z,7.90
2018-09-01T04:46:09.482Z,7.65
2018-09-01T04:48:39.392Z,8.35
2018-09-01T04:51:09.494Z,6.15
2018-09-01T04:53:39.461Z,9.53
2018-09-01T04:56:09.378Z,5.70
2018-09-01T04:58:39.421Z,7.28
2018-09-01T05:01:09.585Z,4.80
2018-09-01T05:03:39.423Z,6.80
2018-09-01T05:06:09.469Z,4.95
2018-09-01T05:08:39.456Z,6.57
2018-09-01T05:11:09.583Z,6.60
2018-09-01T05:13:39.470Z,5.78
2018-09-01T05:16:09.494Z,6.75
2018-09-01T05:18:39.538Z,6.30
2018-09-01T05:21:09.425Z,5.55
2018-09-01T05:23:39.452Z,5.80
2018-09-01T05:26:09.626Z,7.22
2018-09-01T05:28:39.509Z,4.35
2018-09-01T05:31:09.694Z,6.00
2018-09-01T05:33:39.560Z,6.53
2018-09-01T05:36:09.575Z,4.33
2018-09-01T05:38:39.694Z,6.30
2018-09-01T05:41:09.577Z,6.67
2018-09-01T05:43:39.527Z,5.05
2018-09-01T05:46:09.542Z,6.00
2018-09-01T05:48:39.520Z,6.15
2018-09-01T05:51:09.747Z,8.00
2018-09-01T05:53:39.555Z,5.62
2018-09-01T05:56:09.617Z,9.20
2018-09-01T05:58:39.570Z,5.47
2018-09-01T06:01:09.714Z,6.72
2018-09-01T06:03:39.657Z,6.17
2018-09-01T06:06:09.755Z,7.65
2018-09-01T06:08:39.810Z,6.87
2018-09-01T06:11:09.642Z,4.53
2018-09-01T06:13:39.556Z,6.17
2018-09-01T06:16:09.613Z,8.53
2018-09-01T06:18:39.594Z,5.97
2018-09-01T06:21:09.642Z,6.08
2018-09-01T06:23:39.649Z,5.33
2018-09-01T06:26:09.624Z,9.08
2018-09-01T06:28:42.782Z,6.15
2018-09-01T06:31:12.105Z,6.03
2018-09-01T06:33:41.419Z,6.73
2018-09-01T06:36:10.704Z,6.43
2018-09-01T06:38:40.059Z,5.97
2018-09-01T06:41:09.690Z,7.58
2018-09-01T06:43:39.793Z,6.30
2018-09-01T06:46:09.750Z,5.42
2018-09-01T06:48:39.876Z,5.55
2018-09-01T06:51:09.846Z,6.37
2018-09-01T06:53:39.912Z,7.95
2018-09-01T06:56:09.815Z,8.18
2018-09-01T06:58:39.807Z,8.00
2018-09-01T07:01:09.952Z,6.25
2018-09-01T07:03:39.798Z,6.95
2018-09-01T07:06:09.904Z,4.87
2018-09-01T07:08:39.871Z,6.90
2018-09-01T07:11:09.882Z,7.00
2018-09-01T07:13:40.128Z,7.97
2018-09-01T07:16:09.898Z,7.70
2018-09-01T07:18:39.868Z,9.23
2018-09-01T07:21:09.843Z,16.62
2018-09-01T07:23:39.919Z,9.15
2018-09-01T07:26:10.043Z,8.78
2018-09-01T07:28:40.055Z,10.93
2018-09-01T07:31:10.120Z,12.20
2018-09-01T07:33:39.935Z,9.73
2018-09-01T07:36:09.938Z,10.55
2018-09-01T07:38:39.921Z,10.90
2018-09-01T07:41:09.877Z,13.60
2018-09-01T07:43:40.208Z,15.13
2018-09-01T07:46:09.905Z,11.80
2018-09-01T07:48:39.982Z,11.88
2018-09-01T07:51:10.094Z,14.58
2018-09-01T07:53:40.095Z,18.10
2018-09-01T07:56:10.271Z,15.25
2018-09-01T07:58:40.079Z,13.32
2018-09-01T08:01:10.103Z,13.43
2018-09-01T08:03:39.923Z,14.53
2018-09-01T08:06:10.286Z,12.20
2018-09-01T08:08:39.950Z,13.88
2018-09-01T08:11:10.055Z,15.45
2018-09-01T08:13:39.982Z,21.37
2018-09-01T08:16:10.068Z,23.18
2018-09-01T08:18:40.121Z,21.37
2018-09-01T08:21:10.167Z,21.45
2018-09-01T08:23:40.135Z,59.27
2018-09-01T08:26:10.089Z,26.48
2018-09-01T08:28:41.849Z,19.48
2018-09-01T08:31:11.257Z,15.87
2018-09-01T08:33:40.693Z,12.27
2018-09-01T08:36:10.172Z,12.07
2018-09-01T08:38:40.274Z,28.40
2018-09-01T08:41:10.041Z,12.35
2018-09-01T08:43:40.142Z,14.78
2018-09-01T08:46:10.173Z,12.70
2018-09-01T08:48:40.078Z,11.28
2018-09-01T08:51:10.137Z,10.93
2018-09-01T08:53:40.151Z,10.65
2018-09-01T08:56:10.173Z,12.00
2018-09-01T08:58:40.421Z,9.73
2018-09-01T09:01:10.118Z,13.03
2018-09-01T09:03:40.135Z,10.00
2018-09-01T09:06:10.159Z,8.98
2018-09-01T09:08:40.195Z,10.00
2018-09-01T09:11:10.045Z,10.45
2018-09-01T09:13:40.119Z,6.87
2018-09-01T09:16:10.114Z,11.28
2018-09-01T09:18:40.233Z,6.25
2018-09-01T09:21:10.231Z,10.05
2018-09-01T09:23:40.228Z,9.43
2018-09-01T09:26:10.346Z,8.27
2018-09-01T09:28:40.196Z,9.70
2018-09-01T09:31:10.216Z,12.45
2018-09-01T09:33:40.173Z,12.98
2018-09-01T09:36:10.134Z,14.07
2018-09-01T09:38:40.322Z,11.93
2018-09-01T09:41:10.253Z,12.90
2018-09-01T09:43:40.305Z,13.38
2018-09-01T09:46:10.340Z,10.82
2018-09-01T09:48:40.278Z,8.80
2018-09-01T09:51:10.199Z,9.90
2018-09-01T09:53:40.403Z,9.03
2018-09-01T09:56:10.262Z,13.38
2018-09-01T09:58:40.210Z,8.18
2018-09-01T10:01:15.577Z,9.08
2018-09-01T10:03:44.930Z,13.33
2018-09-01T10:06:14.364Z,11.90
2018-09-01T10:08:43.819Z,8.03
2018-09-01T10:11:13.467Z,7.63
2018-09-01T10:13:42.811Z,9.00
2018-09-01T10:16:12.285Z,12.80
2018-09-01T10:18:41.598Z,9.13
2018-09-01T10:21:10.936Z,12.23
2018-09-01T10:23:40.289Z,9.03
2018-09-01T10:26:10.261Z,12.80
2018-09-01T10:28:40.369Z,10.32
2018-09-01T10:31:10.456Z,7.97
2018-09-01T10:33:40.446Z,8.63
2018-09-01T10:36:10.704Z,7.22
2018-09-01T10:38:40.315Z,8.73
2018-09-01T10:41:10.376Z,8.05
2018-09-01T10:43:47.245Z,15.38
2018-09-01T10:46:16.658Z,8.27
2018-09-01T10:48:46.462Z,5.33
2018-09-01T10:51:16.222Z,7.80
2018-09-01T10:53:46.136Z,3.93
2018-09-01T10:56:15.451Z,4.93
2018-09-01T10:58:44.975Z,3.27
2018-09-01T11:01:14.265Z,5.27
2018-09-01T11:03:43.578Z,3.20
2018-09-01T11:06:13.151Z,3.80
2018-09-01T11:08:42.606Z,3.60
2018-09-01T11:11:11.954Z,4.83
2018-09-01T11:13:41.443Z,5.90
2018-09-01T11:16:10.757Z,4.63
2018-09-01T11:18:40.424Z,3.05
2018-09-01T11:21:10.779Z,3.67
2018-09-01T11:23:40.547Z,3.27
2018-09-01T11:26:10.439Z,3.47
2018-09-01T11:28:40.537Z,3.47
2018-09-01T11:31:10.480Z,2.52
2018-09-01T11:33:40.542Z,3.03
2018-09-01T11:36:10.564Z,3.05
2018-09-01T11:38:40.415Z,6.63
2018-09-01T11:41:10.424Z,2.93
2018-09-01T11:43:40.626Z,3.58
2018-09-01T11:46:10.430Z,2.50
2018-09-01T11:48:40.569Z,3.15
2018-09-01T11:51:10.567Z,3.22
2018-09-01T11:53:40.592Z,3.37
2018-09-01T11:58:50.685Z,2.73
2018-09-01T12:01:20.072Z,2.83
2018-09-01T12:03:49.366Z,2.23
2018-09-01T12:06:18.684Z,2.60
2018-09-01T12:08:48.098Z,2.47
2018-09-01T12:11:17.303Z,3.13
2018-09-01T12:13:46.592Z,3.10
2018-09-01T12:16:15.961Z,2.17
2018-09-01T12:18:45.260Z,2.00
2018-09-01T12:21:14.537Z,1.65
2018-09-01T12:23:43.885Z,2.73
2018-09-01T12:26:13.248Z,2.87
2018-09-01T12:28:42.550Z,1.42
2018-09-01T12:31:11.874Z,2.37
2018-09-01T12:33:41.173Z,2.70
2018-09-01T12:36:10.675Z,2.12
2018-09-01T12:38:40.587Z,3.62
2018-09-01T12:41:10.677Z,2.50
2018-09-01T12:43:40.687Z,2.55
2018-09-01T12:46:10.657Z,2.90
2018-09-01T12:48:40.677Z,1.70
2018-09-01T12:51:10.667Z,2.50
2018-09-01T12:53:40.615Z,1.80
2018-09-01T12:56:10.654Z,1.62
2018-09-01T12:58:40.635Z,2.08
2018-09-01T13:01:10.774Z,3.47
2018-09-01T13:03:40.689Z,2.98
2018-09-01T13:06:11.555Z,2.30
2018-09-01T13:08:41.342Z,2.13
2018-09-01T13:11:10.793Z,3.05
2018-09-01T13:13:40.670Z,2.40
2018-09-01T13:16:10.769Z,1.42
2018-09-01T13:18:47.468Z,3.30
2018-09-01T13:21:16.808Z,3.52
2018-09-01T13:23:46.119Z,2.50
2018-09-01T13:26:15.627Z,2.47
2018-09-01T13:28:44.894Z,4.97
2018-09-01T13:31:14.197Z,3.40
2018-09-01T13:33:43.511Z,3.17
2018-09-01T13:36:12.843Z,2.23
2018-09-01T13:38:42.213Z,2.67
2018-09-01T13:41:11.524Z,2.80
2018-09-01T13:43:40.896Z,4.10
2018-09-01T13:46:10.969Z,2.87
2018-09-01T13:48:40.874Z,2.50
2018-09-01T13:51:10.855Z,4.67
2018-09-01T13:53:40.904Z,5.90
2018-09-01T13:56:10.825Z,4.20
2018-09-01T13:58:40.736Z,3.40
2018-09-01T14:01:10.855Z,3.25
2018-09-01T14:03:40.917Z,4.47
2018-09-01T14:06:10.922Z,4.12
2018-09-01T14:08:40.818Z,4.12
2018-09-01T14:11:10.824Z,3.65
2018-09-01T14:13:40.797Z,3.90
2018-09-01T14:16:10.891Z,2.98
2018-09-01T14:18:40.870Z,3.58
2018-09-01T14:21:10.930Z,3.95
2018-09-01T14:23:40.959Z,2.70
2018-09-01T14:26:10.892Z,2.62
2018-09-01T14:28:40.926Z,3.95
2018-09-01T14:31:11.021Z,4.20
2018-09-01T14:33:40.786Z,4.67
2018-09-01T14:36:10.945Z,2.80
2018-09-01T14:38:41.027Z,2.83
2018-09-01T14:41:10.820Z,5.83
2018-09-01T14:43:40.964Z,6.53
2018-09-01T14:46:10.905Z,3.52
2018-09-01T14:48:40.899Z,5.35
2018-09-01T14:51:11.074Z,3.40
2018-09-01T14:53:40.850Z,3.52
2018-09-01T14:56:10.983Z,3.55
2018-09-01T14:58:41.123Z,3.52
2018-09-01T15:01:10.943Z,1.50
2018-09-01T15:03:40.905Z,3.30
2018-09-01T15:06:11.143Z,2.80
2018-09-01T15:08:40.893Z,2.17
2018-09-01T15:11:11.036Z,2.67
2018-09-01T15:13:41.087Z,2.52
2018-09-01T15:16:10.423Z,2.63
2018-09-01T15:18:40.873Z,2.87
2018-09-01T15:21:10.999Z,2.17
2018-09-01T15:23:40.954Z,2.67
2018-09-01T15:26:10.993Z,2.40
2018-09-01T15:28:40.959Z,3.60
2018-09-01T15:31:10.919Z,1.75
2018-09-01T15:33:41.017Z,2.25
2018-09-01T15:36:10.887Z,3.93
2018-09-01T15:38:40.982Z,1.70
2018-09-01T15:41:11.047Z,5.10
2018-09-01T15:43:41.064Z,3.80
2018-09-01T15:46:10.998Z,2.30
2018-09-01T15:48:40.956Z,3.30
2018-09-01T15:51:11.028Z,2.42
2018-09-01T15:53:41.017Z,1.80
2018-09-01T15:56:10.991Z,2.53
2018-09-01T15:58:41.118Z,2.92
2018-09-01T16:01:11.027Z,2.33
2018-09-01T16:03:41.033Z,2.52
2018-09-01T16:06:11.015Z,3.70
2018-09-01T16:08:41.073Z,3.45
2018-09-01T16:11:11.071Z,3.40
2018-09-01T16:13:41.044Z,4.97
2018-09-01T16:16:10.991Z,2.50
2018-09-01T16:18:41.083Z,2.52
2018-09-01T16:21:11.218Z,2.58
2018-09-01T16:23:41.041Z,3.43
2018-09-01T16:26:11.107Z,3.25
2018-09-01T16:28:41.190Z,2.87
2018-09-01T16:31:11.225Z,6.10
2018-09-01T16:33:41.161Z,3.20
2018-09-01T16:36:11.151Z,4.25
2018-09-01T16:38:41.125Z,2.70
2018-09-01T16:41:11.165Z,1.93
2018-09-01T16:43:41.046Z,3.53
2018-09-01T16:46:11.177Z,2.50
2018-09-01T16:48:41.226Z,3.50
2018-09-01T16:51:11.281Z,3.30
2018-09-01T16:53:41.244Z,2.35
2018-09-01T16:56:11.199Z,3.98
2018-09-01T16:58:41.239Z,1.72
2018-09-01T17:01:11.317Z,3.12
2018-09-01T17:03:41.291Z,2.83
2018-09-01T17:06:11.193Z,4.17
2018-09-01T17:08:41.159Z,3.85
2018-09-01T17:11:11.097Z,2.60
2018-09-01T17:13:41.670Z,1.85
2018-09-01T17:16:11.234Z,3.30
2018-09-01T17:18:41.317Z,3.95
2018-09-01T17:21:11.227Z,3.10
2018-09-01T17:23:41.198Z,4.72
2018-09-01T17:26:11.271Z,3.08
2018-09-01T17:28:41.177Z,5.90
2018-09-01T17:31:11.226Z,2.07
2018-09-01T17:33:41.325Z,2.90
2018-09-01T17:36:11.265Z,3.40
2018-09-01T17:38:41.266Z,3.92
2018-09-01T17:41:11.289Z,3.67
2018-09-01T17:43:41.221Z,3.72
2018-09-01T17:46:11.287Z,3.70
2018-09-01T17:48:41.310Z,3.33
2018-09-01T17:51:11.341Z,3.50
2018-09-01T17:53:41.284Z,2.47
2018-09-01T17:56:11.360Z,3.12
2018-09-01T17:58:41.318Z,6.17
2018-09-01T18:01:11.405Z,3.05
2018-09-01T18:03:41.221Z,2.80
2018-09-01T18:06:11.397Z,2.30
2018-09-01T18:08:41.424Z,2.92
2018-09-01T18:11:11.440Z,3.50
2018-09-01T18:13:41.708Z,1.98
2018-09-01T18:16:11.324Z,2.50
2018-09-01T18:18:41.382Z,2.67
2018-09-01T18:21:11.362Z,3.53
2018-09-01T18:23:44.237Z,1.72
2018-09-01T18:26:13.604Z,2.90
2018-09-01T18:28:42.894Z,2.90
2018-09-01T18:31:12.226Z,1.83
2018-09-01T18:33:41.576Z,2.23
2018-09-01T18:36:11.420Z,3.17
2018-09-01T18:38:41.401Z,2.17
2018-09-01T18:41:11.541Z,5.85
2018-09-01T18:43:41.314Z,3.17
2018-09-01T18:46:11.452Z,2.37
2018-09-01T18:48:41.425Z,1.80
2018-09-01T18:51:11.496Z,2.45
2018-09-01T18:53:41.627Z,2.80
2018-09-01T18:56:11.477Z,2.05
2018-09-01T18:58:41.484Z,3.62
2018-09-01T19:01:11.426Z,4.90
2018-09-01T19:03:41.417Z,2.08
2018-09-01T19:06:11.387Z,3.07
2018-09-01T19:08:41.499Z,2.35
2018-09-01T19:11:11.510Z,3.15
2018-09-01T19:13:41.488Z,3.58
2018-09-01T19:16:11.619Z,3.37
2018-09-01T19:18:41.486Z,1.67
2018-09-01T19:21:11.613Z,2.58
2018-09-01T19:23:41.516Z,3.00
2018-09-01T19:26:11.547Z,2.05
2018-09-01T19:28:41.594Z,2.80
2018-09-01T19:31:11.542Z,4.72
2018-09-01T19:33:41.467Z,2.70
2018-09-01T19:36:11.436Z,1.70
2018-09-01T19:38:41.515Z,2.35
2018-09-01T19:41:11.530Z,3.65
2018-09-01T19:43:41.689Z,2.92
2018-09-01T19:46:11.559Z,2.37
2018-09-01T19:48:41.466Z,2.62
2018-09-01T19:51:11.669Z,2.05
2018-09-01T19:53:41.490Z,2.55
2018-09-01T19:56:11.577Z,3.27
2018-09-01T19:58:41.571Z,1.60
2018-09-01T20:01:11.623Z,2.75
2018-09-01T20:03:41.836Z,3.98
2018-09-01T20:06:11.588Z,2.80
2018-09-01T20:08:41.595Z,4.15
2018-09-01T20:11:11.651Z,3.35
2018-09-01T20:13:41.584Z,2.05
2018-09-01T20:16:11.659Z,1.82
2018-09-01T20:18:41.589Z,3.60
2018-09-01T20:21:11.620Z,2.62
2018-09-01T20:23:41.594Z,2.47
2018-09-01T20:26:11.657Z,2.72
2018-09-01T20:28:41.710Z,5.08
2018-09-01T20:31:11.566Z,1.50
2018-09-01T20:33:41.795Z,4.45
2018-09-01T20:36:16.803Z,2.58
2018-09-01T20:38:46.134Z,3.37
2018-09-01T20:41:15.514Z,3.07
2018-09-01T20:43:44.904Z,4.20
2018-09-01T20:46:14.232Z,4.60
2018-09-01T20:48:43.525Z,4.13
2018-09-01T20:51:12.851Z,7.07
2018-09-01T20:53:42.250Z,4.97
2018-09-01T20:56:11.664Z,3.87
2018-09-01T20:58:41.684Z,3.95
2018-09-01T21:01:11.717Z,3.40
2018-09-01T21:03:41.625Z,4.87
2018-09-01T21:06:17.538Z,2.52
2018-09-01T21:08:52.972Z,3.03
2018-09-01T21:11:22.621Z,2.77
2018-09-01T21:13:51.997Z,2.60
2018-09-01T21:16:21.340Z,2.80
2018-09-01T21:18:50.744Z,4.03
2018-09-01T21:21:20.069Z,3.17
2018-09-01T21:23:49.361Z,2.70
2018-09-01T21:26:18.762Z,2.72
2018-09-01T21:28:48.143Z,2.67
2018-09-01T21:31:17.514Z,3.52
2018-09-01T21:33:46.949Z,4.15
2018-09-01T21:36:16.331Z,2.83
2018-09-01T21:38:45.664Z,2.98
2018-09-01T21:41:14.987Z,5.20
2018-09-01T21:43:44.440Z,3.70
2018-09-01T21:46:13.826Z,4.05
2018-09-01T21:48:43.151Z,4.37
2018-09-01T21:51:12.512Z,4.40
2018-09-01T21:53:41.878Z,3.60
2018-09-01T21:56:11.941Z,4.03
2018-09-01T21:58:41.779Z,2.58
2018-09-01T22:01:17.068Z,3.30
2018-09-01T22:03:47.172Z,4.40
2018-09-01T22:06:17.879Z,3.13
2018-09-01T22:08:47.362Z,5.23
2018-09-01T22:11:16.790Z,3.80
2018-09-01T22:13:46.110Z,2.57
2018-09-01T22:16:15.514Z,1.97
2018-09-01T22:18:44.882Z,2.77
2018-09-01T22:21:14.241Z,2.20
2018-09-01T22:23:43.546Z,3.13
2018-09-01T22:26:12.932Z,2.20
2018-09-01T22:28:42.361Z,3.87
2018-09-01T22:31:11.849Z,3.47
2018-09-01T22:33:48.195Z,4.28
2018-09-01T22:36:23.710Z,2.70
2018-09-01T22:38:53.190Z,3.57
2018-09-01T22:41:22.523Z,2.93
2018-09-01T22:43:51.905Z,4.20
2018-09-01T22:46:21.451Z,3.87
2018-09-01T22:48:50.788Z,2.17
2018-09-01T22:51:20.109Z,3.43
2018-09-01T22:53:49.553Z,3.00
2018-09-01T22:56:18.946Z,4.60
2018-09-01T22:58:48.306Z,3.60
2018-09-01T23:01:17.654Z,2.50
2018-09-01T23:03:47.050Z,3.63
2018-09-01T23:06:16.365Z,3.37
2018-09-01T23:08:45.661Z,3.57
2018-09-01T23:11:14.993Z,4.17
2018-09-01T23:13:44.316Z,4.77
2018-09-01T23:16:13.741Z,3.43
2018-09-01T23:18:43.054Z,3.03
2018-09-01T23:21:12.422Z,3.90
2018-09-01T23:23:42.060Z,2.72
2018-09-01T23:26:12.015Z,3.42
2018-09-01T23:28:42.011Z,3.13
2018-09-01T23:31:12.075Z,3.65
2018-09-01T23:33:41.988Z,2.53
2018-09-01T23:36:12.112Z,3.20
2018-09-01T23:38:42.087Z,2.27
2018-09-01T23:41:12.045Z,2.10
2018-09-01T23:43:42.037Z,2.27
2018-09-01T23:46:12.163Z,4.28
2018-09-01T23:48:42.111Z,2.67
2018-09-01T23:51:12.120Z,3.17
2018-09-01T23:53:42.096Z,2.22
2018-09-01T23:56:12.018Z,3.55
2018-09-01T23:58:42.091Z,3.22
